Time;durP1;ratioP1;P1;durP2;ratioP2;P2;SDS_P1;SDS_P2;PMS_P1;PMS_P2;Temp;Humidity;BMP_temperature;BMP_pressure;BME280_temperature;BME280_humidity;BME280_pressure;Samples;Min_cycle;Max_cycle;Signal;HPM_P1;HPM_P2
2021/02/17 09:53:24;;;;;;;2.83;1.83;;;;;;;17.29;43.38;100860.11;;;;-57
2021/02/17 09:56:24;;;;;;;2.25;1.68;;;;;;;17.29;43.37;100866.18;;;;-54
2021/02/17 09:59:24;;;;;;;4.84;1.59;;;;;;;17.31;43.64;100864.52;;;;-51
2021/02/17 10:02:24;;;;;;;5.75;1.87;;;;;;;17.33;43.62;100867.85;;;;-51
2021/02/17 10:05:24;;;;;;;4.47;1.73;;;;;;;17.34;43.79;100868.63;;;;-53
2021/02/17 10:08:24;;;;;;;5.15;1.82;;;;;;;17.36;43.67;100868.75;;;;-51
2021/02/17 10:14:24;;;;;;;3.13;1.75;;;;;;;17.41;43.71;100873.49;;;;-46
2021/02/17 10:17:24;;;;;;;3.71;1.83;;;;;;;17.42;43.70;100868.64;;;;-54
2021/02/17 10:20:24;;;;;;;4.46;1.72;;;;;;;17.44;43.69;100864.39;;;;-51
2021/02/17 10:23:24;;;;;;;2.31;1.51;;;;;;;17.45;43.67;100865.08;;;;-53
2021/02/17 10:26:24;;;;;;;2.73;1.45;;;;;;;17.48;43.61;100865.13;;;;-53
2021/02/17 10:29:24;;;;;;;3.57;1.50;;;;;;;17.48;43.72;100855.97;;;;-51
2021/02/17 10:32:24;;;;;;;4.71;1.57;;;;;;;17.48;43.64;100862.69;;;;-51
2021/02/17 10:35:24;;;;;;;3.65;1.56;;;;;;;17.49;43.59;100855.41;;;;-52
2021/02/17 10:38:24;;;;;;;3.45;1.63;;;;;;;17.50;43.55;100862.17;;;;-51
2021/02/17 10:41:24;;;;;;;2.37;1.34;;;;;;;17.51;43.51;100856.91;;;;-52
2021/02/17 10:44:24;;;;;;;3.95;1.68;;;;;;;17.51;43.50;100857.07;;;;-51
2021/02/17 10:47:24;;;;;;;2.39;1.51;;;;;;;17.52;43.54;100860.02;;;;-52
2021/02/17 10:50:24;;;;;;;3.20;1.61;;;;;;;17.53;43.49;100862.38;;;;-53
2021/02/17 10:53:24;;;;;;;2.09;1.54;;;;;;;17.53;43.46;100867.41;;;;-53
2021/02/17 10:56:24;;;;;;;2.11;1.43;;;;;;;17.53;43.45;100866.02;;;;-51
2021/02/17 10:59:24;;;;;;;2.69;1.51;;;;;;;17.54;43.53;100866.22;;;;-49
2021/02/17 11:02:24;;;;;;;1.82;1.43;;;;;;;17.54;43.46;100866.71;;;;-52
2021/02/17 11:05:24;;;;;;;3.15;1.49;;;;;;;17.55;43.51;100861.05;;;;-53
2021/02/17 11:08:24;;;;;;;2.83;1.45;;;;;;;17.55;43.52;100862.27;;;;-62
2021/02/17 11:11:24;;;;;;;3.03;1.61;;;;;;;17.57;43.58;100866.52;;;;-53
2021/02/17 11:14:24;;;;;;;2.25;1.47;;;;;;;17.57;43.30;100859.47;;;;-53
2021/02/17 11:17:24;;;;;;;3.33;1.40;;;;;;;17.57;43.17;100855.81;;;;-52
2021/02/17 11:20:24;;;;;;;2.88;1.55;;;;;;;17.59;43.10;100850.75;;;;-52
2021/02/17 11:23:24;;;;;;;2.48;1.41;;;;;;;17.61;43.01;100850.87;;;;-53
2021/02/17 11:26:24;;;;;;;2.48;1.49;;;;;;;17.63;43.00;100856.19;;;;-52
2021/02/17 11:29:24;;;;;;;2.46;1.40;;;;;;;17.65;43.00;100853.47;;;;-53
2021/02/17 11:32:24;;;;;;;2.19;1.34;;;;;;;17.67;42.93;100856.02;;;;-52
2021/02/17 11:35:24;;;;;;;3.93;1.37;;;;;;;17.69;42.74;100852.98;;;;-53
2021/02/17 11:38:24;;;;;;;1.84;1.21;;;;;;;17.72;42.84;100848.41;;;;-53
2021/02/17 11:41:24;;;;;;;1.77;1.33;;;;;;;17.73;42.79;100848.05;;;;-53
2021/02/17 11:44:24;;;;;;;1.55;1.32;;;;;;;17.76;42.88;100847.28;;;;-52
2021/02/17 11:47:25;;;;;;;2.12;1.37;;;;;;;17.78;42.76;100840.37;;;;-51
2021/02/17 11:50:24;;;;;;;2.58;1.38;;;;;;;17.81;42.74;100844.15;;;;-51
2021/02/17 11:53:24;;;;;;;1.63;1.31;;;;;;;17.84;42.75;100840.81;;;;-51
2021/02/17 11:56:24;;;;;;;1.35;1.24;;;;;;;17.86;42.77;100843.29;;;;-51
2021/02/17 11:59:24;;;;;;;1.81;1.29;;;;;;;17.88;42.83;100841.55;;;;-51
2021/02/17 12:02:24;;;;;;;2.30;1.42;;;;;;;17.89;42.70;100839.80;;;;-51
2021/02/17 12:05:24;;;;;;;1.96;1.40;;;;;;;17.91;42.64;100839.43;;;;-51
2021/02/17 12:08:24;;;;;;;2.27;1.44;;;;;;;17.94;42.69;100840.77;;;;-52
2021/02/17 12:11:24;;;;;;;1.45;1.23;;;;;;;17.96;42.72;100839.67;;;;-51
2021/02/17 12:14:24;;;;;;;4.31;1.32;;;;;;;17.99;42.93;100841.74;;;;-49
2021/02/17 12:17:24;;;;;;;1.74;1.38;;;;;;;18.03;43.20;100837.92;;;;-51
2021/02/17 12:20:24;;;;;;;2.13;1.42;;;;;;;18.06;42.98;100836.78;;;;-52
2021/02/17 12:23:24;;;;;;;2.05;1.31;;;;;;;18.11;43.34;100837.99;;;;-49
2021/02/17 12:26:24;;;;;;;2.91;1.43;;;;;;;18.12;42.81;100839.73;;;;-48
2021/02/17 12:29:24;;;;;;;5.93;1.35;;;;;;;18.15;43.15;100837.50;;;;-50
2021/02/17 12:32:24;;;;;;;4.77;1.45;;;;;;;18.18;43.35;100838.87;;;;-49
2021/02/17 12:35:24;;;;;;;2.62;1.37;;;;;;;18.22;43.41;100828.69;;;;-48
2021/02/17 12:38:24;;;;;;;2.59;1.30;;;;;;;18.25;43.45;100823.16;;;;-48
2021/02/17 12:41:24;;;;;;;1.75;1.30;;;;;;;18.28;43.57;100822.55;;;;-56
2021/02/17 12:44:24;;;;;;;3.05;1.67;;;;;;;18.30;43.55;100820.59;;;;-44
2021/02/17 12:56:24;;;;;;;3.15;1.39;;;;;;;18.41;43.20;100817.16;;;;-51
2021/02/17 12:59:24;;;;;;;1.55;1.24;;;;;;;18.43;43.42;100816.73;;;;-52
2021/02/17 13:02:24;;;;;;;3.19;1.33;;;;;;;18.46;43.40;100814.83;;;;-49
2021/02/17 13:05:24;;;;;;;1.49;1.20;;;;;;;18.49;43.43;100814.38;;;;-51
2021/02/17 13:08:24;;;;;;;2.07;1.29;;;;;;;18.53;43.70;100811.55;;;;-48
2021/02/17 13:11:24;;;;;;;3.31;1.48;;;;;;;18.54;43.31;100806.76;;;;-50
2021/02/17 13:14:24;;;;;;;1.77;1.20;;;;;;;18.56;43.30;100805.81;;;;-53
2021/02/17 13:17:26;;;;;;;4.49;1.42;;;;;;;18.59;43.43;100803.09;;;;-51
2021/02/17 13:20:24;;;;;;;3.28;1.39;;;;;;;18.63;43.49;100812.57;;;;-51
2021/02/17 13:23:24;;;;;;;4.01;1.44;;;;;;;18.64;43.40;100799.94;;;;-50
2021/02/17 13:26:24;;;;;;;3.21;1.36;;;;;;;18.64;43.51;100796.36;;;;-50
2021/02/17 13:29:24;;;;;;;4.09;1.41;;;;;;;18.69;43.69;100799.75;;;;-48
2021/02/17 13:32:24;;;;;;;4.31;1.32;;;;;;;18.75;44.30;100798.06;;;;-51
2021/02/17 13:35:24;;;;;;;2.47;1.31;;;;;;;18.77;44.26;100802.56;;;;-48
2021/02/17 13:38:24;;;;;;;4.12;1.31;;;;;;;18.80;44.22;100801.64;;;;-49
2021/02/17 13:41:24;;;;;;;3.47;1.45;;;;;;;18.83;43.86;100802.27;;;;-50
2021/02/17 13:44:24;;;;;;;4.31;1.61;;;;;;;18.86;43.85;100799.46;;;;-47
2021/02/17 13:47:24;;;;;;;3.83;1.43;;;;;;;18.88;43.79;100801.30;;;;-49
2021/02/17 13:50:24;;;;;;;4.47;1.46;;;;;;;18.91;43.77;100808.56;;;;-52
2021/02/17 13:53:24;;;;;;;2.45;1.29;;;;;;;18.92;43.68;100806.94;;;;-52
2021/02/17 13:56:24;;;;;;;1.85;1.21;;;;;;;18.94;43.47;100806.48;;;;-52
2021/02/17 13:59:24;;;;;;;1.67;1.21;;;;;;;18.95;43.62;100806.02;;;;-51
2021/02/17 14:02:24;;;;;;;3.47;1.23;;;;;;;18.97;43.57;100800.61;;;;-47
2021/02/17 14:05:24;;;;;;;3.88;1.30;;;;;;;18.99;43.47;100791.70;;;;-55
2021/02/17 14:08:24;;;;;;;2.13;1.23;;;;;;;19.01;43.47;100789.55;;;;-52
2021/02/17 14:11:24;;;;;;;2.67;1.29;;;;;;;19.05;43.55;100794.11;;;;-54
2021/02/17 14:14:24;;;;;;;3.60;1.30;;;;;;;19.06;43.52;100792.60;;;;-52
2021/02/17 14:17:24;;;;;;;2.54;1.23;;;;;;;19.07;43.32;100790.16;;;;-52
2021/02/17 14:20:24;;;;;;;2.73;1.16;;;;;;;19.07;43.36;100794.55;;;;-52
2021/02/17 14:23:24;;;;;;;7.02;1.48;;;;;;;19.04;43.03;100792.58;;;;-52
2021/02/17 14:26:24;;;;;;;5.87;1.38;;;;;;;18.98;42.75;100794.27;;;;-51
2021/02/17 14:29:24;;;;;;;3.16;1.43;;;;;;;18.94;42.81;100792.59;;;;-49
2021/02/17 14:32:24;;;;;;;2.59;1.25;;;;;;;18.93;42.85;100789.59;;;;-45
2021/02/17 14:35:24;;;;;;;5.08;1.28;;;;;;;18.96;42.94;100793.68;;;;-51
2021/02/17 14:38:24;;;;;;;4.69;1.54;;;;;;;19.01;43.04;100792.47;;;;-55
2021/02/17 14:41:24;;;;;;;3.97;1.26;;;;;;;19.04;43.08;100790.95;;;;-53
2021/02/17 14:44:24;;;;;;;2.74;1.31;;;;;;;19.08;43.08;100793.28;;;;-51
2021/02/17 14:47:24;;;;;;;2.33;1.37;;;;;;;19.10;43.13;100792.00;;;;-52
2021/02/17 14:50:24;;;;;;;2.47;1.23;;;;;;;19.10;42.99;100791.76;;;;-47
2021/02/17 14:53:29;;;;;;;2.56;1.30;;;;;;;19.14;43.10;100792.71;;;;-52
2021/02/17 14:56:25;;;;;;;2.20;1.30;;;;;;;19.15;43.16;100791.36;;;;-51
2021/02/17 14:59:24;;;;;;;3.74;1.34;;;;;;;19.18;43.07;100785.86;;;;-49
2021/02/17 15:02:24;;;;;;;3.21;1.27;;;;;;;19.18;43.15;100786.51;;;;-52
2021/02/17 15:05:24;;;;;;;2.95;1.40;;;;;;;19.18;42.85;100786.59;;;;-51
2021/02/17 15:08:24;;;;;;;2.77;1.37;;;;;;;19.23;42.98;100786.23;;;;-53
2021/02/17 15:11:24;;;;;;;1.75;1.22;;;;;;;19.24;42.99;100790.33;;;;-50
2021/02/17 15:14:24;;;;;;;2.75;1.30;;;;;;;19.25;43.05;100791.95;;;;-56
2021/02/17 15:17:24;;;;;;;2.69;1.40;;;;;;;19.25;43.06;100791.22;;;;-53
2021/02/17 15:20:24;;;;;;;1.95;1.22;;;;;;;19.27;43.00;100793.68;;;;-51
2021/02/17 15:23:24;;;;;;;2.01;1.29;;;;;;;19.28;43.06;100795.82;;;;-50
2021/02/17 15:26:24;;;;;;;1.20;1.05;;;;;;;19.30;43.09;100801.75;;;;-58
2021/02/17 15:29:24;;;;;;;1.73;1.18;;;;;;;19.31;43.15;100803.16;;;;-49
2021/02/17 15:32:24;;;;;;;1.77;1.17;;;;;;;19.34;43.17;100799.45;;;;-49
2021/02/17 15:35:24;;;;;;;1.95;1.25;;;;;;;19.36;43.09;100805.23;;;;-51
2021/02/17 15:38:24;;;;;;;2.35;1.29;;;;;;;19.38;43.18;100805.02;;;;-52
2021/02/17 15:41:24;;;;;;;1.54;1.15;;;;;;;19.39;43.11;100808.95;;;;-52
2021/02/17 15:44:24;;;;;;;2.61;1.26;;;;;;;19.40;42.77;100807.97;;;;-50
2021/02/17 15:47:24;;;;;;;1.91;1.19;;;;;;;19.40;42.74;100811.38;;;;-51
2021/02/17 15:50:24;;;;;;;1.37;1.12;;;;;;;19.39;42.61;100814.31;;;;-51
2021/02/17 15:53:24;;;;;;;2.06;1.19;;;;;;;19.38;42.54;100806.32;;;;-51
2021/02/17 15:56:24;;;;;;;1.43;1.18;;;;;;;19.37;42.49;100802.34;;;;-50
2021/02/17 15:59:24;;;;;;;1.69;1.20;;;;;;;19.37;42.49;100803.07;;;;-50
2021/02/17 16:02:24;;;;;;;1.97;0.96;;;;;;;19.36;42.47;100800.23;;;;-53
2021/02/17 16:05:24;;;;;;;2.08;1.26;;;;;;;19.37;42.48;100801.28;;;;-51
2021/02/17 16:08:24;;;;;;;3.11;1.25;;;;;;;19.36;42.47;100802.31;;;;-51
2021/02/17 16:11:24;;;;;;;1.98;1.10;;;;;;;19.36;42.31;100802.31;;;;-51
2021/02/17 16:14:24;;;;;;;1.99;1.03;;;;;;;19.37;42.41;100805.02;;;;-51
2021/02/17 16:17:24;;;;;;;1.87;1.08;;;;;;;19.36;42.40;100807.05;;;;-50
2021/02/17 16:20:25;;;;;;;1.48;1.11;;;;;;;19.37;42.38;100808.59;;;;-52
2021/02/17 16:23:24;;;;;;;2.60;1.21;;;;;;;19.37;42.32;100807.86;;;;-50
2021/02/17 16:26:24;;;;;;;1.15;1.05;;;;;;;19.37;42.29;100807.55;;;;-50
2021/02/17 16:29:24;;;;;;;1.33;1.10;;;;;;;19.37;42.31;100812.25;;;;-51
2021/02/17 16:32:24;;;;;;;1.31;1.10;;;;;;;19.38;42.27;100814.05;;;;-51
2021/02/17 16:35:24;;;;;;;1.81;1.21;;;;;;;19.38;42.22;100817.08;;;;-50
2021/02/17 16:38:24;;;;;;;2.53;1.20;;;;;;;19.39;42.42;100823.41;;;;-54
2021/02/17 16:41:24;;;;;;;1.51;1.20;;;;;;;19.43;42.56;100823.71;;;;-51
2021/02/17 16:44:24;;;;;;;2.30;1.21;;;;;;;19.44;42.35;100824.44;;;;-52
2021/02/17 16:47:24;;;;;;;1.81;1.10;;;;;;;19.46;42.35;100820.64;;;;-52
2021/02/17 16:50:24;;;;;;;2.32;1.31;;;;;;;19.45;42.37;100817.31;;;;-51
2021/02/17 16:53:24;;;;;;;2.13;1.36;;;;;;;19.45;42.18;100817.39;;;;-52
2021/02/17 16:56:24;;;;;;;4.53;1.60;;;;;;;19.45;41.99;100815.94;;;;-52
2021/02/17 16:59:24;;;;;;;1.89;1.25;;;;;;;19.44;41.94;100816.83;;;;-53
2021/02/17 17:02:24;;;;;;;2.30;1.39;;;;;;;19.44;42.05;100817.05;;;;-58
2021/02/17 17:05:24;;;;;;;1.68;1.45;;;;;;;19.45;42.09;100812.28;;;;-51
2021/02/17 17:08:24;;;;;;;2.84;1.41;;;;;;;19.47;42.04;100807.34;;;;-53
2021/02/17 17:11:24;;;;;;;2.23;1.37;;;;;;;19.48;42.03;100808.07;;;;-53
2021/02/17 17:14:24;;;;;;;1.71;1.35;;;;;;;19.48;42.10;100809.53;;;;-52
2021/02/17 17:17:24;;;;;;;2.00;1.31;;;;;;;19.50;42.11;100810.78;;;;-54
2021/02/17 17:20:24;;;;;;;3.35;1.24;;;;;;;19.49;42.08;100806.39;;;;-53
2021/02/17 17:23:24;;;;;;;2.43;1.31;;;;;;;19.49;42.11;100807.05;;;;-54
2021/02/17 17:26:24;;;;;;;2.92;1.17;;;;;;;19.51;42.09;100801.11;;;;-54
2021/02/17 17:29:24;;;;;;;1.99;1.25;;;;;;;19.52;42.10;100804.22;;;;-54
2021/02/17 17:32:24;;;;;;;3.28;1.42;;;;;;;19.52;42.12;100804.88;;;;-52
2021/02/17 17:35:24;;;;;;;1.48;1.15;;;;;;;19.52;42.11;100805.92;;;;-53
2021/02/17 17:38:24;;;;;;;1.61;1.25;;;;;;;19.53;42.09;100808.15;;;;-54
2021/02/17 17:41:24;;;;;;;1.62;1.19;;;;;;;19.55;42.13;100806.35;;;;-52
2021/02/17 17:44:24;;;;;;;2.56;1.36;;;;;;;19.54;42.06;100802.53;;;;-54
2021/02/17 17:47:24;;;;;;;3.21;1.37;;;;;;;19.57;42.18;100796.00;;;;-52
2021/02/17 17:50:24;;;;;;;3.59;1.52;;;;;;;19.57;42.05;100800.20;;;;-53
2021/02/17 17:53:24;;;;;;;2.13;1.28;;;;;;;19.57;42.06;100802.64;;;;-51
2021/02/17 17:56:24;;;;;;;2.39;1.56;;;;;;;19.60;42.19;100803.02;;;;-49
2021/02/17 17:59:24;;;;;;;2.74;1.61;;;;;;;19.61;42.40;100806.34;;;;-49
2021/02/17 18:02:24;;;;;;;2.89;1.53;;;;;;;19.63;42.44;100803.61;;;;-52
2021/02/17 18:05:24;;;;;;;3.30;1.63;;;;;;;19.65;42.50;100805.12;;;;-50
2021/02/17 18:08:24;;;;;;;3.99;1.75;;;;;;;19.66;42.40;100803.41;;;;-50
2021/02/17 18:11:24;;;;;;;2.77;1.91;;;;;;;19.68;42.68;100806.03;;;;-52
2021/02/17 18:14:24;;;;;;;2.82;1.81;;;;;;;19.69;42.63;100807.69;;;;-55
2021/02/17 18:17:24;;;;;;;3.02;1.95;;;;;;;19.71;42.56;100805.59;;;;-51
2021/02/17 18:20:24;;;;;;;2.69;1.88;;;;;;;19.73;42.60;100807.97;;;;-54
2021/02/17 18:23:24;;;;;;;5.29;1.99;;;;;;;19.71;42.27;100807.79;;;;-54
2021/02/17 18:26:24;;;;;;;2.36;1.79;;;;;;;19.69;42.16;100810.94;;;;-55
2021/02/17 18:29:24;;;;;;;1.94;1.70;;;;;;;19.67;42.20;100812.05;;;;-54
2021/02/17 18:32:24;;;;;;;2.91;1.75;;;;;;;19.67;42.16;100809.20;;;;-55
2021/02/17 18:35:24;;;;;;;3.45;1.82;;;;;;;19.66;42.13;100809.83;;;;-54
2021/02/17 18:38:24;;;;;;;1.96;1.73;;;;;;;19.64;42.12;100809.89;;;;-51
2021/02/17 18:41:24;;;;;;;1.88;1.69;;;;;;;19.64;42.10;100814.69;;;;-51
2021/02/17 18:44:24;;;;;;;3.45;1.70;;;;;;;19.64;42.10;100812.73;;;;-51
2021/02/17 18:47:24;;;;;;;1.75;1.64;;;;;;;19.63;42.05;100813.28;;;;-51
2021/02/17 18:50:24;;;;;;;3.07;1.72;;;;;;;19.63;42.00;100815.09;;;;-54
2021/02/17 18:53:24;;;;;;;2.73;1.87;;;;;;;19.61;42.02;100814.72;;;;-55
2021/02/17 18:56:24;;;;;;;2.33;1.80;;;;;;;19.61;42.00;100814.99;;;;-52
2021/02/17 18:59:24;;;;;;;2.79;1.80;;;;;;;19.61;42.03;100819.14;;;;-51
2021/02/17 19:02:24;;;;;;;2.83;1.80;;;;;;;19.61;42.03;100820.03;;;;-54
2021/02/17 19:05:24;;;;;;;2.13;1.77;;;;;;;19.63;42.03;100817.50;;;;-54
2021/02/17 19:08:24;;;;;;;3.61;1.89;;;;;;;19.63;42.00;100813.44;;;;-51
2021/02/17 19:11:24;;;;;;;2.11;1.90;;;;;;;19.64;41.99;100817.70;;;;-51
2021/02/17 19:14:24;;;;;;;2.25;1.74;;;;;;;19.65;42.00;100817.04;;;;-51
2021/02/17 19:17:24;;;;;;;3.37;1.85;;;;;;;19.65;41.99;100816.34;;;;-51
2021/02/17 19:20:24;;;;;;;3.33;1.89;;;;;;;19.66;42.01;100816.50;;;;-52
2021/02/17 19:23:24;;;;;;;2.48;1.90;;;;;;;19.67;42.00;100812.55;;;;-54
2021/02/17 19:26:24;;;;;;;2.65;2.10;;;;;;;19.67;41.99;100809.09;;;;-55
2021/02/17 19:29:24;;;;;;;2.02;1.80;;;;;;;19.67;42.02;100813.36;;;;-55
2021/02/17 19:32:23;;;;;;;2.42;2.01;;;;;;;19.68;41.99;100812.30;;;;-54
2021/02/17 19:35:24;;;;;;;2.87;2.00;;;;;;;19.69;41.98;100818.80;;;;-56
2021/02/17 19:38:24;;;;;;;2.19;1.92;;;;;;;19.69;42.00;100823.02;;;;-54
2021/02/17 19:41:24;;;;;;;6.96;2.01;;;;;;;19.70;42.19;100819.02;;;;-47
2021/02/17 19:44:24;;;;;;;3.62;2.11;;;;;;;19.73;42.35;100821.23;;;;-52
2021/02/17 19:47:24;;;;;;;2.69;2.31;;;;;;;19.75;42.52;100825.64;;;;-54
2021/02/17 19:50:24;;;;;;;2.23;2.03;;;;;;;19.79;42.61;100828.30;;;;-51
2021/02/17 19:53:26;;;;;;;2.42;2.21;;;;;;;19.80;42.66;100829.14;;;;-51
2021/02/17 19:56:24;;;;;;;3.03;2.18;;;;;;;19.82;42.59;100830.95;;;;-48
2021/02/17 19:59:24;;;;;;;2.42;2.22;;;;;;;19.84;42.78;100824.79;;;;-53
2021/02/17 20:02:24;;;;;;;2.41;2.17;;;;;;;19.86;42.76;100822.91;;;;-52
2021/02/17 20:05:24;;;;;;;2.41;2.20;;;;;;;19.88;42.74;100829.77;;;;-54
2021/02/17 20:08:24;;;;;;;2.37;2.17;;;;;;;19.89;42.69;100832.23;;;;-49
2021/02/17 20:11:24;;;;;;;3.59;2.37;;;;;;;19.91;42.85;100831.69;;;;-51
2021/02/17 20:14:24;;;;;;;3.21;2.27;;;;;;;19.93;42.88;100828.45;;;;-52
2021/02/17 20:17:24;;;;;;;3.75;2.45;;;;;;;19.96;43.00;100828.47;;;;-51
2021/02/17 20:20:23;;;;;;;3.15;2.55;;;;;;;19.96;43.02;100830.25;;;;-49
2021/02/17 20:23:24;;;;;;;3.55;2.57;;;;;;;19.95;43.31;100831.72;;;;-46
2021/02/17 20:26:24;;;;;;;3.02;2.51;;;;;;;19.94;43.18;100830.41;;;;-47
2021/02/17 20:29:24;;;;;;;2.77;2.41;;;;;;;19.94;43.17;100831.81;;;;-45
2021/02/17 20:32:24;;;;;;;3.10;2.39;;;;;;;19.96;43.40;100827.98;;;;-53
2021/02/17 20:35:24;;;;;;;3.50;2.41;;;;;;;19.97;43.30;100830.36;;;;-50
2021/02/17 20:38:24;;;;;;;2.80;2.41;;;;;;;19.98;43.47;100836.30;;;;-50
2021/02/17 20:41:24;;;;;;;2.63;2.35;;;;;;;19.95;43.36;100838.40;;;;-47
2021/02/17 20:44:24;;;;;;;2.87;2.48;;;;;;;19.95;43.25;100836.69;;;;-47
2021/02/17 20:47:25;;;;;;;2.88;2.52;;;;;;;19.92;43.34;100832.41;;;;-51
2021/02/17 20:50:24;;;;;;;2.57;2.37;;;;;;;19.91;43.27;100831.28;;;;-52
2021/02/17 20:53:24;;;;;;;2.60;2.40;;;;;;;19.90;43.33;100829.57;;;;-45
2021/02/17 20:56:24;;;;;;;3.23;2.50;;;;;;;19.88;43.32;100826.67;;;;-52
2021/02/17 20:59:24;;;;;;;3.27;2.57;;;;;;;19.85;43.24;100831.86;;;;-46
2021/02/17 21:02:24;;;;;;;3.32;2.68;;;;;;;19.84;43.22;100826.66;;;;-51
2021/02/17 21:05:24;;;;;;;2.91;2.61;;;;;;;19.81;43.26;100822.95;;;;-50
2021/02/17 21:08:23;;;;;;;2.74;2.49;;;;;;;19.78;43.19;100822.03;;;;-51
2021/02/17 21:11:24;;;;;;;2.87;2.57;;;;;;;19.76;43.10;100819.66;;;;-51
2021/02/17 21:14:24;;;;;;;2.89;2.58;;;;;;;19.74;43.15;100813.70;;;;-55
2021/02/17 21:17:24;;;;;;;3.21;2.59;;;;;;;19.72;43.16;100813.59;;;;-50
2021/02/17 21:20:24;;;;;;;2.91;2.61;;;;;;;19.69;43.10;100814.73;;;;-48
2021/02/17 21:23:24;;;;;;;3.12;2.82;;;;;;;19.66;43.12;100813.58;;;;-50
2021/02/17 21:26:24;;;;;;;3.60;2.54;;;;;;;19.65;43.00;100810.13;;;;-55
2021/02/17 21:29:24;;;;;;;3.19;2.51;;;;;;;19.61;43.02;100814.75;;;;-55
2021/02/17 21:32:23;;;;;;;3.06;2.65;;;;;;;19.58;42.98;100814.61;;;;-51
2021/02/17 21:35:24;;;;;;;3.65;2.65;;;;;;;19.56;42.92;100818.00;;;;-51
2021/02/17 21:38:24;;;;;;;3.10;2.80;;;;;;;19.54;42.97;100817.09;;;;-52
2021/02/17 21:41:24;;;;;;;3.11;2.81;;;;;;;19.52;42.98;100819.75;;;;-51
2021/02/17 21:44:24;;;;;;;3.00;2.73;;;;;;;19.49;42.99;100818.59;;;;-51
2021/02/17 21:47:24;;;;;;;3.08;2.78;;;;;;;19.47;43.04;100819.38;;;;-53
2021/02/17 21:50:24;;;;;;;3.29;2.68;;;;;;;19.45;43.01;100822.84;;;;-54
2021/02/17 21:53:24;;;;;;;4.05;2.85;;;;;;;19.41;42.99;100813.61;;;;-52
2021/02/17 21:56:23;;;;;;;3.11;2.80;;;;;;;19.37;43.05;100813.48;;;;-47
2021/02/17 21:59:24;;;;;;;3.77;2.70;;;;;;;19.34;43.03;100811.74;;;;-49
2021/02/17 22:02:24;;;;;;;3.45;2.71;;;;;;;19.31;43.00;100806.48;;;;-48
2021/02/17 22:05:23;;;;;;;2.95;2.65;;;;;;;19.29;43.08;100805.00;;;;-50
2021/02/17 22:08:24;;;;;;;3.29;2.81;;;;;;;19.27;43.04;100803.11;;;;-51
2021/02/17 22:11:24;;;;;;;3.05;2.73;;;;;;;19.24;43.13;100803.41;;;;-50
2021/02/17 22:14:24;;;;;;;3.09;2.79;;;;;;;19.21;43.11;100800.27;;;;-53
2021/02/17 22:17:24;;;;;;;3.33;2.91;;;;;;;19.19;43.07;100797.64;;;;-48
2021/02/17 22:20:24;;;;;;;3.19;2.89;;;;;;;19.16;43.12;100797.04;;;;-52
2021/02/17 22:23:24;;;;;;;3.15;2.80;;;;;;;19.14;43.15;100798.88;;;;-48
2021/02/17 22:26:24;;;;;;;3.29;2.89;;;;;;;19.11;43.14;100792.44;;;;-46
2021/02/17 22:29:23;;;;;;;3.03;2.73;;;;;;;19.09;43.20;100795.34;;;;-49
2021/02/17 22:32:24;;;;;;;3.45;2.70;;;;;;;19.07;43.24;100794.34;;;;-50
2021/02/17 22:35:24;;;;;;;4.92;2.91;;;;;;;19.06;43.24;100791.95;;;;-53
2021/02/17 22:38:24;;;;;;;4.39;2.95;;;;;;;19.03;43.01;100795.66;;;;-53
2021/02/17 22:41:24;;;;;;;4.56;3.09;;;;;;;18.99;43.09;100790.16;;;;-50
2021/02/17 22:44:25;;;;;;;5.00;2.97;;;;;;;18.94;43.09;100788.45;;;;-51
2021/02/17 22:47:23;;;;;;;3.13;2.77;;;;;;;18.92;43.08;100791.19;;;;-52
2021/02/17 22:50:24;;;;;;;3.11;2.81;;;;;;;18.88;43.05;100787.34;;;;-53
2021/02/17 22:53:23;;;;;;;3.89;2.93;;;;;;;18.85;43.04;100785.17;;;;-51
2021/02/17 22:56:24;;;;;;;3.26;2.79;;;;;;;18.82;43.06;100786.66;;;;-51
2021/02/17 22:59:24;;;;;;;3.25;2.77;;;;;;;18.79;43.07;100788.41;;;;-59
2021/02/17 23:02:24;;;;;;;3.79;2.95;;;;;;;18.75;43.06;100791.16;;;;-59
2021/02/17 23:05:24;;;;;;;3.13;2.77;;;;;;;18.73;43.07;100789.19;;;;-59
2021/02/17 23:08:23;;;;;;;3.29;2.86;;;;;;;18.68;43.04;100785.23;;;;-59
2021/02/17 23:11:24;;;;;;;3.09;2.61;;;;;;;18.67;43.03;100779.34;;;;-51
2021/02/17 23:14:24;;;;;;;3.41;3.00;;;;;;;18.63;43.05;100772.39;;;;-53
2021/02/17 23:17:23;;;;;;;3.37;2.89;;;;;;;18.61;43.08;100777.88;;;;-50
2021/02/17 23:20:24;;;;;;;3.23;2.77;;;;;;;18.57;43.08;100784.42;;;;-51
2021/02/17 23:23:23;;;;;;;3.11;2.81;;;;;;;18.55;43.08;100786.66;;;;-51
2021/02/17 23:26:24;;;;;;;2.72;2.52;;;;;;;18.53;43.10;100780.11;;;;-57
2021/02/17 23:29:24;;;;;;;3.56;2.97;;;;;;;18.49;43.11;100781.05;;;;-58
2021/02/17 23:32:23;;;;;;;3.62;2.79;;;;;;;18.47;43.14;100781.50;;;;-57
2021/02/17 23:35:24;;;;;;;2.69;2.48;;;;;;;18.45;43.10;100780.38;;;;-58
2021/02/17 23:38:24;;;;;;;3.09;2.79;;;;;;;18.42;43.07;100777.67;;;;-52
2021/02/17 23:41:23;;;;;;;3.64;2.81;;;;;;;18.39;43.13;100772.85;;;;-58
2021/02/17 23:44:24;;;;;;;3.05;2.70;;;;;;;18.36;43.12;100771.08;;;;-57
2021/02/17 23:47:23;;;;;;;2.88;2.62;;;;;;;18.34;43.16;100766.99;;;;-57
2021/02/17 23:50:23;;;;;;;4.15;2.83;;;;;;;18.30;43.13;100769.03;;;;-51
2021/02/17 23:53:24;;;;;;;3.36;2.81;;;;;;;18.28;43.18;100765.92;;;;-52
2021/02/17 23:56:23;;;;;;;3.28;2.71;;;;;;;18.26;43.12;100761.45;;;;-59
2021/02/17 23:59:24;;;;;;;2.97;2.61;;;;;;;18.24;43.15;100755.98;;;;-59
